sensor_id;sensor_type;location;lat;lon;timestamp;temperature;humidity
12060;DHT22;6091;51.432;6.880;2023-04-26T00:02:23;22.60;32.00
12060;DHT22;6091;51.432;6.880;2023-04-26T00:04:53;22.50;31.40
12060;DHT22;6091;51.432;6.880;2023-04-26T00:07:22;22.60;32.10
12060;DHT22;6091;51.432;6.880;2023-04-26T00:09:50;22.60;32.20
12060;DHT22;6091;51.432;6.880;2023-04-26T00:12:18;22.60;32.10
12060;DHT22;6091;51.432;6.880;2023-04-26T00:14:46;22.60;32.10
12060;DHT22;6091;51.432;6.880;2023-04-26T00:17:13;22.60;32.10
12060;DHT22;6091;51.432;6.880;2023-04-26T00:19:40;22.60;32.20
12060;DHT22;6091;51.432;6.880;2023-04-26T00:22:07;22.60;32.10
12060;DHT22;6091;51.432;6.880;2023-04-26T00:24:34;22.60;31.60
12060;DHT22;6091;51.432;6.880;2023-04-26T00:27:02;22.60;31.70
12060;DHT22;6091;51.432;6.880;2023-04-26T00:29:35;22.50;32.20
12060;DHT22;6091;51.432;6.880;2023-04-26T00:32:03;22.50;31.60
12060;DHT22;6091;51.432;6.880;2023-04-26T00:34:32;22.50;32.20
12060;DHT22;6091;51.432;6.880;2023-04-26T00:37:04;22.50;32.20
12060;DHT22;6091;51.432;6.880;2023-04-26T00:39:31;22.50;32.20
12060;DHT22;6091;51.432;6.880;2023-04-26T00:41:58;22.50;32.20
12060;DHT22;6091;51.432;6.880;2023-04-26T00:44:25;22.40;31.60
12060;DHT22;6091;51.432;6.880;2023-04-26T00:46:52;22.40;32.20
12060;DHT22;6091;51.432;6.880;2023-04-26T00:49:22;22.40;32.20
12060;DHT22;6091;51.432;6.880;2023-04-26T00:51:51;22.40;32.20
12060;DHT22;6091;51.432;6.880;2023-04-26T00:54:20;22.40;32.20
12060;DHT22;6091;51.432;6.880;2023-04-26T00:56:47;22.40;31.70
12060;DHT22;6091;51.432;6.880;2023-04-26T00:59:19;22.40;32.30
12060;DHT22;6091;51.432;6.880;2023-04-26T01:01:47;21.90;31.90
12060;DHT22;6091;51.432;6.880;2023-04-26T01:04:15;22.40;32.30
12060;DHT22;6091;51.432;6.880;2023-04-26T01:06:45;22.40;32.90
12060;DHT22;6091;51.432;6.880;2023-04-26T01:09:13;22.40;32.30
12060;DHT22;6091;51.432;6.880;2023-04-26T01:11:42;22.40;31.80
12060;DHT22;6091;51.432;6.880;2023-04-26T01:14:10;22.30;32.40
12060;DHT22;6091;51.432;6.880;2023-04-26T01:16:37;22.30;31.80
12060;DHT22;6091;51.432;6.880;2023-04-26T01:19:10;22.30;32.30
12060;DHT22;6091;51.432;6.880;2023-04-26T01:21:39;22.30;32.40
12060;DHT22;6091;51.432;6.880;2023-04-26T01:24:09;22.30;32.40
12060;DHT22;6091;51.432;6.880;2023-04-26T01:26:40;22.20;31.90
12060;DHT22;6091;51.432;6.880;2023-04-26T01:29:16;22.30;32.50
12060;DHT22;6091;51.432;6.880;2023-04-26T01:31:44;22.20;31.90
12060;DHT22;6091;51.432;6.880;2023-04-26T01:34:12;22.30;32.40
12060;DHT22;6091;51.432;6.880;2023-04-26T01:36:40;22.20;31.90
12060;DHT22;6091;51.432;6.880;2023-04-26T01:39:08;22.30;32.50
12060;DHT22;6091;51.432;6.880;2023-04-26T01:41:35;22.20;32.40
12060;DHT22;6091;51.432;6.880;2023-04-26T01:44:03;22.10;31.80
12060;DHT22;6091;51.432;6.880;2023-04-26T01:46:30;22.20;32.40
12060;DHT22;6091;51.432;6.880;2023-04-26T01:48:57;22.20;32.50
12060;DHT22;6091;51.432;6.880;2023-04-26T01:51:25;22.20;31.90
12060;DHT22;6091;51.432;6.880;2023-04-26T01:53:52;22.20;32.50
12060;DHT22;6091;51.432;6.880;2023-04-26T01:56:21;22.10;31.90
12060;DHT22;6091;51.432;6.880;2023-04-26T01:58:49;22.20;32.00
12060;DHT22;6091;51.432;6.880;2023-04-26T02:01:16;22.20;32.00
12060;DHT22;6091;51.432;6.880;2023-04-26T02:03:43;22.10;32.00
12060;DHT22;6091;51.432;6.880;2023-04-26T02:06:11;22.10;32.50
12060;DHT22;6091;51.432;6.880;2023-04-26T02:08:37;22.10;32.50
12060;DHT22;6091;51.432;6.880;2023-04-26T02:11:05;22.10;32.00
12060;DHT22;6091;51.432;6.880;2023-04-26T02:13:32;22.00;32.50
12060;DHT22;6091;51.432;6.880;2023-04-26T02:15:59;22.10;32.00
12060;DHT22;6091;51.432;6.880;2023-04-26T02:18:26;22.00;31.90
12060;DHT22;6091;51.432;6.880;2023-04-26T02:20:53;22.10;32.00
12060;DHT22;6091;51.432;6.880;2023-04-26T02:23:20;22.00;32.50
12060;DHT22;6091;51.432;6.880;2023-04-26T02:25:47;22.10;32.10
12060;DHT22;6091;51.432;6.880;2023-04-26T02:28:15;22.00;32.60
12060;DHT22;6091;51.432;6.880;2023-04-26T02:30:42;22.00;32.60
12060;DHT22;6091;51.432;6.880;2023-04-26T02:33:10;22.00;32.60
12060;DHT22;6091;51.432;6.880;2023-04-26T02:35:37;22.00;32.60
12060;DHT22;6091;51.432;6.880;2023-04-26T02:38:04;21.70;31.90
12060;DHT22;6091;51.432;6.880;2023-04-26T02:40:31;21.90;32.10
12060;DHT22;6091;51.432;6.880;2023-04-26T02:42:58;21.90;32.10
12060;DHT22;6091;51.432;6.880;2023-04-26T02:45:25;22.00;32.60
12060;DHT22;6091;51.432;6.880;2023-04-26T02:47:53;21.90;32.60
12060;DHT22;6091;51.432;6.880;2023-04-26T02:50:20;21.90;32.10
12060;DHT22;6091;51.432;6.880;2023-04-26T02:52:47;21.90;32.60
12060;DHT22;6091;51.432;6.880;2023-04-26T02:55:14;22.00;32.70
12060;DHT22;6091;51.432;6.880;2023-04-26T02:57:41;21.90;32.10
12060;DHT22;6091;51.432;6.880;2023-04-26T03:00:08;21.90;32.70
12060;DHT22;6091;51.432;6.880;2023-04-26T03:02:37;21.90;32.70
12060;DHT22;6091;51.432;6.880;2023-04-26T03:05:04;21.90;32.70
12060;DHT22;6091;51.432;6.880;2023-04-26T03:09:59;21.90;32.20
12060;DHT22;6091;51.432;6.880;2023-04-26T03:12:27;21.80;32.10
12060;DHT22;6091;51.432;6.880;2023-04-26T03:14:54;21.80;32.10
12060;DHT22;6091;51.432;6.880;2023-04-26T03:17:21;21.80;32.70
12060;DHT22;6091;51.432;6.880;2023-04-26T03:19:48;21.90;32.80
12060;DHT22;6091;51.432;6.880;2023-04-26T03:22:16;21.80;32.70
12060;DHT22;6091;51.432;6.880;2023-04-26T03:24:44;21.80;32.20
12060;DHT22;6091;51.432;6.880;2023-04-26T03:27:12;21.80;32.70
12060;DHT22;6091;51.432;6.880;2023-04-26T03:29:39;21.90;32.20
12060;DHT22;6091;51.432;6.880;2023-04-26T03:32:12;21.80;32.80
12060;DHT22;6091;51.432;6.880;2023-04-26T03:34:42;21.80;32.30
12060;DHT22;6091;51.432;6.880;2023-04-26T03:37:09;21.90;32.30
12060;DHT22;6091;51.432;6.880;2023-04-26T03:39:36;21.80;32.70
12060;DHT22;6091;51.432;6.880;2023-04-26T03:42:04;21.80;32.20
12060;DHT22;6091;51.432;6.880;2023-04-26T03:44:31;21.80;32.80
12060;DHT22;6091;51.432;6.880;2023-04-26T03:46:58;21.80;32.80
12060;DHT22;6091;51.432;6.880;2023-04-26T03:49:25;21.70;32.20
12060;DHT22;6091;51.432;6.880;2023-04-26T03:51:52;21.80;32.80
12060;DHT22;6091;51.432;6.880;2023-04-26T03:54:18;21.80;32.80
12060;DHT22;6091;51.432;6.880;2023-04-26T03:56:45;21.80;32.80
12060;DHT22;6091;51.432;6.880;2023-04-26T03:59:14;21.70;32.30
12060;DHT22;6091;51.432;6.880;2023-04-26T04:01:41;21.80;32.90
12060;DHT22;6091;51.432;6.880;2023-04-26T04:04:08;21.70;32.80
12060;DHT22;6091;51.432;6.880;2023-04-26T04:06:36;21.70;32.80
12060;DHT22;6091;51.432;6.880;2023-04-26T04:09:04;21.70;32.80
12060;DHT22;6091;51.432;6.880;2023-04-26T04:11:34;21.70;32.30
12060;DHT22;6091;51.432;6.880;2023-04-26T04:14:01;21.70;32.30
12060;DHT22;6091;51.432;6.880;2023-04-26T04:16:28;21.70;32.90
12060;DHT22;6091;51.432;6.880;2023-04-26T04:18:55;21.70;32.90
12060;DHT22;6091;51.432;6.880;2023-04-26T04:21:23;21.70;32.90
12060;DHT22;6091;51.432;6.880;2023-04-26T04:23:53;21.60;32.30
12060;DHT22;6091;51.432;6.880;2023-04-26T04:26:20;21.60;32.30
12060;DHT22;6091;51.432;6.880;2023-04-26T04:28:47;21.60;32.80
12060;DHT22;6091;51.432;6.880;2023-04-26T04:31:14;21.70;32.90
12060;DHT22;6091;51.432;6.880;2023-04-26T04:33:41;21.60;32.90
12060;DHT22;6091;51.432;6.880;2023-04-26T04:36:08;21.60;32.90
12060;DHT22;6091;51.432;6.880;2023-04-26T04:38:36;21.50;32.30
12060;DHT22;6091;51.432;6.880;2023-04-26T04:41:03;21.60;32.90
12060;DHT22;6091;51.432;6.880;2023-04-26T04:43:30;21.60;32.90
12060;DHT22;6091;51.432;6.880;2023-04-26T04:45:57;21.70;32.50
12060;DHT22;6091;51.432;6.880;2023-04-26T04:48:24;21.60;32.90
12060;DHT22;6091;51.432;6.880;2023-04-26T04:50:51;21.50;32.40
12060;DHT22;6091;51.432;6.880;2023-04-26T04:53:18;21.60;32.90
12060;DHT22;6091;51.432;6.880;2023-04-26T04:55:45;21.60;32.40
12060;DHT22;6091;51.432;6.880;2023-04-26T04:58:12;21.60;33.00
12060;DHT22;6091;51.432;6.880;2023-04-26T05:00:40;21.60;33.00
12060;DHT22;6091;51.432;6.880;2023-04-26T05:03:07;21.60;33.00
12060;DHT22;6091;51.432;6.880;2023-04-26T05:05:35;21.50;32.40
12060;DHT22;6091;51.432;6.880;2023-04-26T05:08:03;21.60;33.00
12060;DHT22;6091;51.432;6.880;2023-04-26T05:10:30;21.60;33.00
12060;DHT22;6091;51.432;6.880;2023-04-26T05:12:57;21.60;32.40
12060;DHT22;6091;51.432;6.880;2023-04-26T05:15:24;21.60;33.00
12060;DHT22;6091;51.432;6.880;2023-04-26T05:17:51;21.60;32.50
12060;DHT22;6091;51.432;6.880;2023-04-26T05:20:18;21.50;32.50
12060;DHT22;6091;51.432;6.880;2023-04-26T05:22:46;21.50;32.40
12060;DHT22;6091;51.432;6.880;2023-04-26T05:25:13;21.50;33.00
12060;DHT22;6091;51.432;6.880;2023-04-26T05:27:40;21.60;33.00
12060;DHT22;6091;51.432;6.880;2023-04-26T05:30:07;21.50;32.40
12060;DHT22;6091;51.432;6.880;2023-04-26T05:32:35;21.50;32.40
12060;DHT22;6091;51.432;6.880;2023-04-26T05:35:02;21.50;32.40
12060;DHT22;6091;51.432;6.880;2023-04-26T05:37:30;21.60;32.60
12060;DHT22;6091;51.432;6.880;2023-04-26T05:39:57;21.60;32.70
12060;DHT22;6091;51.432;6.880;2023-04-26T05:42:24;21.60;32.80
12060;DHT22;6091;51.432;6.880;2023-04-26T05:44:57;21.60;33.40
12060;DHT22;6091;51.432;6.880;2023-04-26T05:47:24;21.80;33.10
12060;DHT22;6091;51.432;6.880;2023-04-26T05:49:52;21.70;33.60
12060;DHT22;6091;51.432;6.880;2023-04-26T05:52:19;21.90;33.30
12060;DHT22;6091;51.432;6.880;2023-04-26T05:54:46;21.90;33.80
12060;DHT22;6091;51.432;6.880;2023-04-26T05:57:13;22.10;33.90
12060;DHT22;6091;51.432;6.880;2023-04-26T05:59:40;22.30;33.30
12060;DHT22;6091;51.432;6.880;2023-04-26T06:02:07;22.60;33.50
12060;DHT22;6091;51.432;6.880;2023-04-26T06:04:34;22.70;33.30
12060;DHT22;6091;51.432;6.880;2023-04-26T06:07:01;22.90;33.30
12060;DHT22;6091;51.432;6.880;2023-04-26T06:09:30;23.00;33.30
12060;DHT22;6091;51.432;6.880;2023-04-26T06:11:58;23.20;33.30
12060;DHT22;6091;51.432;6.880;2023-04-26T06:14:26;23.10;33.20
12060;DHT22;6091;51.432;6.880;2023-04-26T06:16:56;23.30;33.00
12060;DHT22;6091;51.432;6.880;2023-04-26T06:19:24;23.50;33.20
12060;DHT22;6091;51.432;6.880;2023-04-26T06:21:51;23.70;33.30
12060;DHT22;6091;51.432;6.880;2023-04-26T06:24:22;23.70;33.80
12060;DHT22;6091;51.432;6.880;2023-04-26T06:26:50;23.80;33.70
12060;DHT22;6091;51.432;6.880;2023-04-26T06:29:19;23.90;33.20
12060;DHT22;6091;51.432;6.880;2023-04-26T06:31:47;24.10;33.30
12060;DHT22;6091;51.432;6.880;2023-04-26T06:34:14;24.10;33.70
12060;DHT22;6091;51.432;6.880;2023-04-26T06:36:41;24.20;33.60
12060;DHT22;6091;51.432;6.880;2023-04-26T06:39:08;24.20;32.70
12060;DHT22;6091;51.432;6.880;2023-04-26T06:41:35;24.40;33.00
12060;DHT22;6091;51.432;6.880;2023-04-26T06:46:29;24.70;33.00
12060;DHT22;6091;51.432;6.880;2023-04-26T06:48:57;24.70;33.50
12060;DHT22;6091;51.432;6.880;2023-04-26T06:51:24;24.90;32.90
12060;DHT22;6091;51.432;6.880;2023-04-26T06:53:51;24.80;32.80
12060;DHT22;6091;51.432;6.880;2023-04-26T06:56:19;25.00;32.80
12060;DHT22;6091;51.432;6.880;2023-04-26T06:59:01;25.00;33.30
12060;DHT22;6091;51.432;6.880;2023-04-26T07:01:30;25.10;32.90
12060;DHT22;6091;51.432;6.880;2023-04-26T07:04:02;25.10;32.60
12060;DHT22;6091;51.432;6.880;2023-04-26T07:06:30;25.10;33.10
12060;DHT22;6091;51.432;6.880;2023-04-26T07:08:58;25.20;33.00
12060;DHT22;6091;51.432;6.880;2023-04-26T07:11:27;25.20;33.00
12060;DHT22;6091;51.432;6.880;2023-04-26T07:13:58;25.20;32.90
12060;DHT22;6091;51.432;6.880;2023-04-26T07:16:25;25.20;32.80
12060;DHT22;6091;51.432;6.880;2023-04-26T07:18:53;25.20;32.30
12060;DHT22;6091;51.432;6.880;2023-04-26T07:21:24;25.10;32.20
12060;DHT22;6091;51.432;6.880;2023-04-26T07:23:56;25.20;32.20
12060;DHT22;6091;51.432;6.880;2023-04-26T07:26:25;25.30;32.30
12060;DHT22;6091;51.432;6.880;2023-04-26T07:31:20;25.20;32.10
12060;DHT22;6091;51.432;6.880;2023-04-26T07:33:48;25.10;31.80
12060;DHT22;6091;51.432;6.880;2023-04-26T07:36:15;25.10;32.00
12060;DHT22;6091;51.432;6.880;2023-04-26T07:38:42;25.20;32.00
12060;DHT22;6091;51.432;6.880;2023-04-26T07:41:10;25.10;31.80
12060;DHT22;6091;51.432;6.880;2023-04-26T07:46:06;25.00;31.90
12060;DHT22;6091;51.432;6.880;2023-04-26T07:48:33;25.00;32.10
12060;DHT22;6091;51.432;6.880;2023-04-26T07:51:10;25.10;32.20
12060;DHT22;6091;51.432;6.880;2023-04-26T07:53:38;25.30;32.20
12060;DHT22;6091;51.432;6.880;2023-04-26T07:56:07;25.30;32.00
12060;DHT22;6091;51.432;6.880;2023-04-26T07:58:36;25.30;32.30
12060;DHT22;6091;51.432;6.880;2023-04-26T08:01:07;25.20;32.10
12060;DHT22;6091;51.432;6.880;2023-04-26T08:03:39;25.30;32.20
12060;DHT22;6091;51.432;6.880;2023-04-26T08:06:11;25.30;31.90
12060;DHT22;6091;51.432;6.880;2023-04-26T08:08:39;25.40;32.80
12060;DHT22;6091;51.432;6.880;2023-04-26T08:11:10;25.50;32.00
12060;DHT22;6091;51.432;6.880;2023-04-26T08:13:38;25.40;31.90
12060;DHT22;6091;51.432;6.880;2023-04-26T08:16:05;25.70;31.90
12060;DHT22;6091;51.432;6.880;2023-04-26T08:18:32;25.60;31.70
12060;DHT22;6091;51.432;6.880;2023-04-26T08:21:00;25.70;31.60
12060;DHT22;6091;51.432;6.880;2023-04-26T08:23:34;25.70;32.10
12060;DHT22;6091;51.432;6.880;2023-04-26T08:26:02;25.80;31.60
12060;DHT22;6091;51.432;6.880;2023-04-26T08:28:30;25.70;32.00
12060;DHT22;6091;51.432;6.880;2023-04-26T08:30:57;25.80;31.40
12060;DHT22;6091;51.432;6.880;2023-04-26T08:33:25;25.80;31.40
12060;DHT22;6091;51.432;6.880;2023-04-26T08:35:52;25.80;31.90
12060;DHT22;6091;51.432;6.880;2023-04-26T08:38:20;25.90;31.90
12060;DHT22;6091;51.432;6.880;2023-04-26T08:40:50;25.90;31.40
12060;DHT22;6091;51.432;6.880;2023-04-26T08:43:19;25.80;31.30
12060;DHT22;6091;51.432;6.880;2023-04-26T08:45:47;25.90;31.30
12060;DHT22;6091;51.432;6.880;2023-04-26T08:48:14;25.90;31.30
12060;DHT22;6091;51.432;6.880;2023-04-26T08:50:44;25.90;31.80
12060;DHT22;6091;51.432;6.880;2023-04-26T08:53:16;25.90;31.20
12060;DHT22;6091;51.432;6.880;2023-04-26T08:55:47;25.90;31.00
12060;DHT22;6091;51.432;6.880;2023-04-26T08:58:19;25.90;31.00
12060;DHT22;6091;51.432;6.880;2023-04-26T09:00:47;26.00;31.50
12060;DHT22;6091;51.432;6.880;2023-04-26T09:03:16;25.90;31.00
12060;DHT22;6091;51.432;6.880;2023-04-26T09:05:44;26.00;31.00
12060;DHT22;6091;51.432;6.880;2023-04-26T09:08:17;25.90;31.40
12060;DHT22;6091;51.432;6.880;2023-04-26T09:10:46;25.90;30.60
12060;DHT22;6091;51.432;6.880;2023-04-26T09:13:13;25.90;30.80
12060;DHT22;6091;51.432;6.880;2023-04-26T09:15:40;26.00;30.80
12060;DHT22;6091;51.432;6.880;2023-04-26T09:18:19;25.90;31.20
12060;DHT22;6091;51.432;6.880;2023-04-26T09:21:05;25.90;30.40
12060;DHT22;6091;51.432;6.880;2023-04-26T09:23:34;26.00;31.10
12060;DHT22;6091;51.432;6.880;2023-04-26T09:26:17;25.90;30.70
12060;DHT22;6091;51.432;6.880;2023-04-26T09:28:46;25.80;30.60
12060;DHT22;6091;51.432;6.880;2023-04-26T09:31:35;25.90;30.50
12060;DHT22;6091;51.432;6.880;2023-04-26T09:34:05;25.80;30.40
12060;DHT22;6091;51.432;6.880;2023-04-26T09:36:44;25.80;30.50
12060;DHT22;6091;51.432;6.880;2023-04-26T09:39:33;25.90;30.40
12060;DHT22;6091;51.432;6.880;2023-04-26T09:42:09;25.90;30.40
12060;DHT22;6091;51.432;6.880;2023-04-26T09:44:37;25.90;30.60
12060;DHT22;6091;51.432;6.880;2023-04-26T09:47:09;25.70;30.50
12060;DHT22;6091;51.432;6.880;2023-04-26T09:49:48;25.90;30.70
12060;DHT22;6091;51.432;6.880;2023-04-26T09:52:20;25.90;31.10
12060;DHT22;6091;51.432;6.880;2023-04-26T09:54:50;25.90;30.70
12060;DHT22;6091;51.432;6.880;2023-04-26T09:57:20;25.90;30.50
12060;DHT22;6091;51.432;6.880;2023-04-26T09:59:52;25.90;30.60
12060;DHT22;6091;51.432;6.880;2023-04-26T10:02:26;26.00;30.60
12060;DHT22;6091;51.432;6.880;2023-04-26T10:04:56;26.10;30.70
12060;DHT22;6091;51.432;6.880;2023-04-26T10:09:56;26.20;30.60
12060;DHT22;6091;51.432;6.880;2023-04-26T10:12:25;26.10;30.50
12060;DHT22;6091;51.432;6.880;2023-04-26T10:14:52;26.20;30.50
12060;DHT22;6091;51.432;6.880;2023-04-26T10:17:21;26.20;30.40
12060;DHT22;6091;51.432;6.880;2023-04-26T10:19:53;26.30;30.30
12060;DHT22;6091;51.432;6.880;2023-04-26T10:22:26;26.30;30.30
12060;DHT22;6091;51.432;6.880;2023-04-26T10:30:15;26.30;30.20
12060;DHT22;6091;51.432;6.880;2023-04-26T10:35:31;26.20;30.20
12060;DHT22;6091;51.432;6.880;2023-04-26T10:45:47;26.20;30.30
12060;DHT22;6091;51.432;6.880;2023-04-26T10:48:28;26.20;30.30
12060;DHT22;6091;51.432;6.880;2023-04-26T10:59:26;26.20;30.30
12060;DHT22;6091;51.432;6.880;2023-04-26T11:02:14;26.20;30.30
12060;DHT22;6091;51.432;6.880;2023-04-26T11:04:52;26.20;30.40
12060;DHT22;6091;51.432;6.880;2023-04-26T11:07:36;26.10;30.30
12060;DHT22;6091;51.432;6.880;2023-04-26T11:10:08;26.10;30.20
12060;DHT22;6091;51.432;6.880;2023-04-26T11:12:41;26.10;30.40
12060;DHT22;6091;51.432;6.880;2023-04-26T11:15:11;26.10;30.40
12060;DHT22;6091;51.432;6.880;2023-04-26T11:17:39;26.10;30.40
12060;DHT22;6091;51.432;6.880;2023-04-26T11:20:15;26.00;30.40
12060;DHT22;6091;51.432;6.880;2023-04-26T11:22:43;26.00;30.40
12060;DHT22;6091;51.432;6.880;2023-04-26T11:25:12;26.00;30.40
12060;DHT22;6091;51.432;6.880;2023-04-26T11:27:45;26.10;30.50
12060;DHT22;6091;51.432;6.880;2023-04-26T11:30:13;26.00;30.50
12060;DHT22;6091;51.432;6.880;2023-04-26T11:35:21;26.00;30.50
12060;DHT22;6091;51.432;6.880;2023-04-26T11:37:51;26.00;30.40
12060;DHT22;6091;51.432;6.880;2023-04-26T11:40:19;26.00;30.40
12060;DHT22;6091;51.432;6.880;2023-04-26T11:42:47;25.90;30.50
12060;DHT22;6091;51.432;6.880;2023-04-26T11:45:18;26.10;30.50
12060;DHT22;6091;51.432;6.880;2023-04-26T11:47:47;26.10;30.60
12060;DHT22;6091;51.432;6.880;2023-04-26T11:50:15;26.10;30.60
12060;DHT22;6091;51.432;6.880;2023-04-26T11:55:15;26.10;30.70
12060;DHT22;6091;51.432;6.880;2023-04-26T11:57:44;26.20;30.80
12060;DHT22;6091;51.432;6.880;2023-04-26T12:00:13;26.10;30.80
12060;DHT22;6091;51.432;6.880;2023-04-26T12:02:45;26.30;31.00
12060;DHT22;6091;51.432;6.880;2023-04-26T12:05:26;26.30;31.00
12060;DHT22;6091;51.432;6.880;2023-04-26T12:10:36;26.60;30.90
12060;DHT22;6091;51.432;6.880;2023-04-26T12:13:05;26.70;30.80
12060;DHT22;6091;51.432;6.880;2023-04-26T12:15:33;27.00;30.70
12060;DHT22;6091;51.432;6.880;2023-04-26T12:18:06;26.80;30.50
12060;DHT22;6091;51.432;6.880;2023-04-26T12:20:39;27.10;30.70
12060;DHT22;6091;51.432;6.880;2023-04-26T12:23:09;27.10;30.50
12060;DHT22;6091;51.432;6.880;2023-04-26T12:25:51;27.40;30.60
12060;DHT22;6091;51.432;6.880;2023-04-26T12:28:28;27.20;30.30
12060;DHT22;6091;51.432;6.880;2023-04-26T12:30:56;27.40;30.30
12060;DHT22;6091;51.432;6.880;2023-04-26T12:33:24;27.40;30.00
12060;DHT22;6091;51.432;6.880;2023-04-26T12:35:54;27.60;30.80
12060;DHT22;6091;51.432;6.880;2023-04-26T12:38:23;27.50;30.00
12060;DHT22;6091;51.432;6.880;2023-04-26T12:40:52;27.60;30.00
12060;DHT22;6091;51.432;6.880;2023-04-26T12:43:22;27.60;30.00
12060;DHT22;6091;51.432;6.880;2023-04-26T12:45:52;27.50;29.90
12060;DHT22;6091;51.432;6.880;2023-04-26T12:48:20;27.50;29.80
12060;DHT22;6091;51.432;6.880;2023-04-26T12:50:49;27.60;29.90
12060;DHT22;6091;51.432;6.880;2023-04-26T12:53:19;27.60;29.90
12060;DHT22;6091;51.432;6.880;2023-04-26T12:55:47;27.70;30.00
12060;DHT22;6091;51.432;6.880;2023-04-26T12:58:16;27.70;29.90
12060;DHT22;6091;51.432;6.880;2023-04-26T13:00:45;27.60;30.00
12060;DHT22;6091;51.432;6.880;2023-04-26T13:05:47;27.70;30.30
12060;DHT22;6091;51.432;6.880;2023-04-26T13:08:14;27.90;30.10
12060;DHT22;6091;51.432;6.880;2023-04-26T13:10:43;28.10;30.40
12060;DHT22;6091;51.432;6.880;2023-04-26T13:13:16;28.40;30.30
12060;DHT22;6091;51.432;6.880;2023-04-26T13:15:52;28.70;30.10
12060;DHT22;6091;51.432;6.880;2023-04-26T13:18:22;28.70;30.00
12060;DHT22;6091;51.432;6.880;2023-04-26T13:20:52;28.70;29.80
12060;DHT22;6091;51.432;6.880;2023-04-26T13:25:52;28.50;29.10
12060;DHT22;6091;51.432;6.880;2023-04-26T13:28:20;28.50;29.90
12060;DHT22;6091;51.432;6.880;2023-04-26T13:30:50;28.40;29.50
12060;DHT22;6091;51.432;6.880;2023-04-26T13:33:19;28.40;29.30
12060;DHT22;6091;51.432;6.880;2023-04-26T13:35:47;28.30;29.40
12060;DHT22;6091;51.432;6.880;2023-04-26T13:38:17;28.20;29.30
12060;DHT22;6091;51.432;6.880;2023-04-26T13:40:45;28.10;29.30
12060;DHT22;6091;51.432;6.880;2023-04-26T13:43:13;27.90;29.30
12060;DHT22;6091;51.432;6.880;2023-04-26T13:45:44;28.00;29.30
12060;DHT22;6091;51.432;6.880;2023-04-26T13:48:12;27.90;29.30
12060;DHT22;6091;51.432;6.880;2023-04-26T13:50:40;27.80;29.40
12060;DHT22;6091;51.432;6.880;2023-04-26T13:53:10;27.80;29.40
12060;DHT22;6091;51.432;6.880;2023-04-26T13:55:38;27.80;29.60
12060;DHT22;6091;51.432;6.880;2023-04-26T13:58:06;27.80;29.60
12060;DHT22;6091;51.432;6.880;2023-04-26T14:00:35;28.70;29.90
12060;DHT22;6091;51.432;6.880;2023-04-26T14:03:05;27.70;29.90
12060;DHT22;6091;51.432;6.880;2023-04-26T14:05:33;27.70;29.40
12060;DHT22;6091;51.432;6.880;2023-04-26T14:10:32;27.70;29.40
12060;DHT22;6091;51.432;6.880;2023-04-26T14:13:01;27.70;29.30
12060;DHT22;6091;51.432;6.880;2023-04-26T14:15:29;27.70;29.40
12060;DHT22;6091;51.432;6.880;2023-04-26T14:17:57;27.60;29.40
12060;DHT22;6091;51.432;6.880;2023-04-26T14:20:25;27.60;29.70
12060;DHT22;6091;51.432;6.880;2023-04-26T14:22:53;27.50;29.40
12060;DHT22;6091;51.432;6.880;2023-04-26T14:25:20;27.50;29.40
12060;DHT22;6091;51.432;6.880;2023-04-26T14:30:19;27.40;29.40
12060;DHT22;6091;51.432;6.880;2023-04-26T14:32:47;27.30;29.40
12060;DHT22;6091;51.432;6.880;2023-04-26T14:37:44;27.30;29.40
12060;DHT22;6091;51.432;6.880;2023-04-26T14:40:12;27.20;29.40
12060;DHT22;6091;51.432;6.880;2023-04-26T14:42:39;27.30;29.90
12060;DHT22;6091;51.432;6.880;2023-04-26T14:47:40;27.20;29.50
12060;DHT22;6091;51.432;6.880;2023-04-26T14:50:08;27.20;29.60
12060;DHT22;6091;51.432;6.880;2023-04-26T14:52:36;27.10;29.50
12060;DHT22;6091;51.432;6.880;2023-04-26T14:55:04;26.90;29.40
12060;DHT22;6091;51.432;6.880;2023-04-26T14:57:33;27.10;29.50
12060;DHT22;6091;51.432;6.880;2023-04-26T15:00:09;27.30;29.70
12060;DHT22;6091;51.432;6.880;2023-04-26T15:02:44;27.30;29.60
12060;DHT22;6091;51.432;6.880;2023-04-26T15:05:14;27.30;30.00
12060;DHT22;6091;51.432;6.880;2023-04-26T15:07:42;27.40;30.00
12060;DHT22;6091;51.432;6.880;2023-04-26T15:10:13;27.40;30.00
12060;DHT22;6091;51.432;6.880;2023-04-26T15:12:40;27.40;29.60
12060;DHT22;6091;51.432;6.880;2023-04-26T15:15:08;27.50;29.60
12060;DHT22;6091;51.432;6.880;2023-04-26T15:17:36;27.50;29.60
12060;DHT22;6091;51.432;6.880;2023-04-26T15:20:04;27.60;29.80
12060;DHT22;6091;51.432;6.880;2023-04-26T15:25:05;27.80;29.80
12060;DHT22;6091;51.432;6.880;2023-04-26T15:30:05;27.90;28.80
12060;DHT22;6091;51.432;6.880;2023-04-26T15:32:35;27.80;29.10
12060;DHT22;6091;51.432;6.880;2023-04-26T15:35:04;27.90;28.50
12060;DHT22;6091;51.432;6.880;2023-04-26T15:37:35;27.80;28.60
12060;DHT22;6091;51.432;6.880;2023-04-26T15:40:04;27.70;28.60
12060;DHT22;6091;51.432;6.880;2023-04-26T15:42:32;27.70;28.80
12060;DHT22;6091;51.432;6.880;2023-04-26T15:47:27;27.70;28.90
12060;DHT22;6091;51.432;6.880;2023-04-26T15:50:01;27.60;28.80
12060;DHT22;6091;51.432;6.880;2023-04-26T15:52:33;27.80;28.90
12060;DHT22;6091;51.432;6.880;2023-04-26T15:55:08;27.70;28.80
12060;DHT22;6091;51.432;6.880;2023-04-26T15:57:36;27.60;28.80
12060;DHT22;6091;51.432;6.880;2023-04-26T16:00:07;27.60;29.30
12060;DHT22;6091;51.432;6.880;2023-04-26T16:02:35;27.60;28.80
12060;DHT22;6091;51.432;6.880;2023-04-26T16:05:04;27.60;28.80
12060;DHT22;6091;51.432;6.880;2023-04-26T16:07:36;27.60;28.80
12060;DHT22;6091;51.432;6.880;2023-04-26T16:10:08;27.50;28.80
12060;DHT22;6091;51.432;6.880;2023-04-26T16:12:36;27.60;28.90
12060;DHT22;6091;51.432;6.880;2023-04-26T16:15:06;27.40;28.90
12060;DHT22;6091;51.432;6.880;2023-04-26T16:17:36;27.30;28.80
12060;DHT22;6091;51.432;6.880;2023-04-26T16:20:05;27.30;28.90
12060;DHT22;6091;51.432;6.880;2023-04-26T16:22:34;27.30;28.90
12060;DHT22;6091;51.432;6.880;2023-04-26T16:25:04;27.30;29.00
12060;DHT22;6091;51.432;6.880;2023-04-26T16:27:32;27.20;28.90
12060;DHT22;6091;51.432;6.880;2023-04-26T16:30:00;27.20;29.00
12060;DHT22;6091;51.432;6.880;2023-04-26T16:32:31;27.20;29.00
12060;DHT22;6091;51.432;6.880;2023-04-26T16:35:00;27.10;28.90
12060;DHT22;6091;51.432;6.880;2023-04-26T16:37:29;27.10;29.00
12060;DHT22;6091;51.432;6.880;2023-04-26T16:39:57;27.00;28.90
12060;DHT22;6091;51.432;6.880;2023-04-26T16:42:24;27.00;28.90
12060;DHT22;6091;51.432;6.880;2023-04-26T16:44:53;26.90;28.90
12060;DHT22;6091;51.432;6.880;2023-04-26T16:47:21;26.90;28.90
12060;DHT22;6091;51.432;6.880;2023-04-26T16:49:54;26.90;29.00
12060;DHT22;6091;51.432;6.880;2023-04-26T16:52:21;26.80;29.00
12060;DHT22;6091;51.432;6.880;2023-04-26T16:54:52;26.70;29.00
12060;DHT22;6091;51.432;6.880;2023-04-26T16:57:19;26.70;29.00
12060;DHT22;6091;51.432;6.880;2023-04-26T17:02:15;26.60;29.00
12060;DHT22;6091;51.432;6.880;2023-04-26T17:04:42;26.60;29.00
12060;DHT22;6091;51.432;6.880;2023-04-26T17:07:11;26.60;29.10